Harlech, United Kingdom
Current Conditions -  °F | °C
As of 4:50 AM on Saturday 20 Dec 2014 (Local Time) from EGOV Reporting Station
Broken Clouds Broken Clouds  
Wind Chill: 38°   Ceiling: 3300
Heat Index: 46°   Visibility: 6mi
Dew Point: 37°   Wind: 24mph
Humidity: 71%   Direction: 270°W
Pressure: 30.21"   Gusts: 36mph
Location:  52.86°N, 4.11°W
Report Text: EGOV 200450Z AUTO 27021G31KT 9999 SCT025/// BKN033/// 08/03 Q1023
Loading
Personal Weather Stations






























Interactive Weather Map New forecast layout! Learn more

10-Day Weather Forecast

Advertisements
Track Severe Weather on mobile